sensor_id;sensor_type;location;lat;lon;timestamp;P1;durP1;ratioP1;P2;durP2;ratioP2
53285;SDS011;39171;45.550;12.074;2023-09-30T00:01:09;6.15;;;5.05;;
53285;SDS011;39171;45.550;12.074;2023-09-30T00:07:15;6.50;;;4.90;;
53285;SDS011;39171;45.550;12.074;2023-09-30T00:13:16;5.22;;;4.72;;
53285;SDS011;39171;45.550;12.074;2023-09-30T00:19:19;6.18;;;4.70;;
53285;SDS011;39171;45.550;12.074;2023-09-30T00:25:20;6.00;;;4.32;;
53285;SDS011;39171;45.550;12.074;2023-09-30T00:31:21;4.82;;;4.20;;
53285;SDS011;39171;45.550;12.074;2023-09-30T00:37:23;5.47;;;4.72;;
53285;SDS011;39171;45.550;12.074;2023-09-30T00:43:25;5.93;;;5.05;;
53285;SDS011;39171;45.550;12.074;2023-09-30T00:49:27;5.80;;;4.70;;
53285;SDS011;39171;45.550;12.074;2023-09-30T00:55:29;6.43;;;5.10;;
53285;SDS011;39171;45.550;12.074;2023-09-30T01:01:31;6.40;;;4.90;;
53285;SDS011;39171;45.550;12.074;2023-09-30T01:07:33;5.57;;;4.97;;
53285;SDS011;39171;45.550;12.074;2023-09-30T01:13:36;7.35;;;5.45;;
53285;SDS011;39171;45.550;12.074;2023-09-30T01:19:38;6.45;;;5.20;;
53285;SDS011;39171;45.550;12.074;2023-09-30T01:25:40;5.90;;;5.30;;
53285;SDS011;39171;45.550;12.074;2023-09-30T01:31:44;6.30;;;5.20;;
53285;SDS011;39171;45.550;12.074;2023-09-30T01:37:48;5.45;;;4.95;;
53285;SDS011;39171;45.550;12.074;2023-09-30T01:43:50;6.07;;;4.85;;
53285;SDS011;39171;45.550;12.074;2023-09-30T01:49:51;7.15;;;5.05;;
53285;SDS011;39171;45.550;12.074;2023-09-30T01:55:53;5.95;;;5.35;;
53285;SDS011;39171;45.550;12.074;2023-09-30T02:01:54;6.05;;;5.22;;
53285;SDS011;39171;45.550;12.074;2023-09-30T02:07:56;5.72;;;5.10;;
53285;SDS011;39171;45.550;12.074;2023-09-30T02:13:57;6.25;;;5.03;;
53285;SDS011;39171;45.550;12.074;2023-09-30T02:19:59;7.28;;;5.35;;
53285;SDS011;39171;45.550;12.074;2023-09-30T02:26:07;5.57;;;4.97;;
53285;SDS011;39171;45.550;12.074;2023-09-30T02:32:09;5.55;;;4.38;;
53285;SDS011;39171;45.550;12.074;2023-09-30T02:38:11;5.20;;;4.70;;
53285;SDS011;39171;45.550;12.074;2023-09-30T02:44:12;5.35;;;4.85;;
53285;SDS011;39171;45.550;12.074;2023-09-30T02:50:14;6.35;;;5.00;;
53285;SDS011;39171;45.550;12.074;2023-09-30T02:56:15;6.38;;;5.28;;
53285;SDS011;39171;45.550;12.074;2023-09-30T03:02:16;7.20;;;5.40;;
53285;SDS011;39171;45.550;12.074;2023-09-30T03:08:19;5.53;;;4.82;;
53285;SDS011;39171;45.550;12.074;2023-09-30T03:14:20;6.25;;;5.35;;
53285;SDS011;39171;45.550;12.074;2023-09-30T03:20:25;5.25;;;4.53;;
53285;SDS011;39171;45.550;12.074;2023-09-30T03:26:28;5.63;;;4.53;;
53285;SDS011;39171;45.550;12.074;2023-09-30T03:32:30;5.95;;;5.10;;
53285;SDS011;39171;45.550;12.074;2023-09-30T03:38:34;5.80;;;5.05;;
53285;SDS011;39171;45.550;12.074;2023-09-30T03:44:37;6.00;;;5.22;;
53285;SDS011;39171;45.550;12.074;2023-09-30T03:50:39;5.00;;;4.50;;
53285;SDS011;39171;45.550;12.074;2023-09-30T03:56:41;5.60;;;4.90;;
53285;SDS011;39171;45.550;12.074;2023-09-30T04:02:42;6.43;;;5.38;;
53285;SDS011;39171;45.550;12.074;2023-09-30T04:08:44;5.10;;;4.60;;
53285;SDS011;39171;45.550;12.074;2023-09-30T04:14:45;5.50;;;4.90;;
53285;SDS011;39171;45.550;12.074;2023-09-30T04:20:47;6.68;;;5.07;;
53285;SDS011;39171;45.550;12.074;2023-09-30T04:26:49;6.72;;;5.25;;
53285;SDS011;39171;45.550;12.074;2023-09-30T04:32:51;6.60;;;5.57;;
53285;SDS011;39171;45.550;12.074;2023-09-30T04:38:53;5.20;;;4.70;;
53285;SDS011;39171;45.550;12.074;2023-09-30T04:44:55;6.32;;;5.40;;
53285;SDS011;39171;45.550;12.074;2023-09-30T04:50:56;6.05;;;5.10;;
53285;SDS011;39171;45.550;12.074;2023-09-30T04:56:58;6.30;;;5.15;;
53285;SDS011;39171;45.550;12.074;2023-09-30T05:02:59;6.07;;;5.25;;
53285;SDS011;39171;45.550;12.074;2023-09-30T05:09:00;5.78;;;5.10;;
53285;SDS011;39171;45.550;12.074;2023-09-30T05:15:03;6.80;;;5.40;;
53285;SDS011;39171;45.550;12.074;2023-09-30T05:21:06;6.28;;;5.68;;
53285;SDS011;39171;45.550;12.074;2023-09-30T05:27:08;5.85;;;5.25;;
53285;SDS011;39171;45.550;12.074;2023-09-30T05:33:10;6.25;;;5.35;;
53285;SDS011;39171;45.550;12.074;2023-09-30T05:39:15;6.00;;;5.40;;
53285;SDS011;39171;45.550;12.074;2023-09-30T05:45:21;6.05;;;5.45;;
53285;SDS011;39171;45.550;12.074;2023-09-30T05:51:24;7.38;;;5.40;;
53285;SDS011;39171;45.550;12.074;2023-09-30T05:57:25;6.03;;;5.40;;
53285;SDS011;39171;45.550;12.074;2023-09-30T06:03:27;6.18;;;5.57;;
53285;SDS011;39171;45.550;12.074;2023-09-30T06:09:30;6.38;;;5.53;;
53285;SDS011;39171;45.550;12.074;2023-09-30T06:15:34;6.03;;;5.32;;
53285;SDS011;39171;45.550;12.074;2023-09-30T06:21:41;6.20;;;5.60;;
53285;SDS011;39171;45.550;12.074;2023-09-30T06:27:46;5.75;;;5.15;;
53285;SDS011;39171;45.550;12.074;2023-09-30T06:33:49;6.07;;;5.20;;
53285;SDS011;39171;45.550;12.074;2023-09-30T06:39:50;5.50;;;4.65;;
53285;SDS011;39171;45.550;12.074;2023-09-30T06:45:52;5.78;;;5.18;;
53285;SDS011;39171;45.550;12.074;2023-09-30T06:51:55;5.40;;;4.90;;
53285;SDS011;39171;45.550;12.074;2023-09-30T06:57:56;5.55;;;4.82;;
53285;SDS011;39171;45.550;12.074;2023-09-30T07:03:58;5.72;;;5.05;;
53285;SDS011;39171;45.550;12.074;2023-09-30T07:09:59;4.60;;;4.10;;
53285;SDS011;39171;45.550;12.074;2023-09-30T07:16:00;4.57;;;4.10;;
53285;SDS011;39171;45.550;12.074;2023-09-30T07:22:02;6.40;;;4.13;;
53285;SDS011;39171;45.550;12.074;2023-09-30T07:28:03;4.05;;;3.47;;
53285;SDS011;39171;45.550;12.074;2023-09-30T07:34:05;3.95;;;3.55;;
53285;SDS011;39171;45.550;12.074;2023-09-30T07:40:07;3.80;;;3.42;;
53285;SDS011;39171;45.550;12.074;2023-09-30T07:46:09;3.40;;;3.10;;
53285;SDS011;39171;45.550;12.074;2023-09-30T07:52:11;3.15;;;2.80;;
53285;SDS011;39171;45.550;12.074;2023-09-30T07:58:13;3.25;;;2.70;;
53285;SDS011;39171;45.550;12.074;2023-09-30T08:04:15;2.95;;;2.42;;
53285;SDS011;39171;45.550;12.074;2023-09-30T08:10:17;2.60;;;2.40;;
53285;SDS011;39171;45.550;12.074;2023-09-30T08:16:19;2.67;;;2.22;;
53285;SDS011;39171;45.550;12.074;2023-09-30T08:22:20;2.67;;;2.25;;
53285;SDS011;39171;45.550;12.074;2023-09-30T08:28:26;2.28;;;1.90;;
53285;SDS011;39171;45.550;12.074;2023-09-30T08:34:27;2.15;;;1.83;;
53285;SDS011;39171;45.550;12.074;2023-09-30T08:40:29;1.92;;;1.63;;
53285;SDS011;39171;45.550;12.074;2023-09-30T08:46:35;1.85;;;1.50;;
53285;SDS011;39171;45.550;12.074;2023-09-30T08:52:40;1.80;;;1.52;;
53285;SDS011;39171;45.550;12.074;2023-09-30T08:58:45;1.55;;;1.20;;
53285;SDS011;39171;45.550;12.074;2023-09-30T09:04:47;1.38;;;1.13;;
53285;SDS011;39171;45.550;12.074;2023-09-30T09:10:54;1.40;;;1.10;;
53285;SDS011;39171;45.550;12.074;2023-09-30T09:16:57;1.70;;;1.30;;
53285;SDS011;39171;45.550;12.074;2023-09-30T09:22:59;1.90;;;1.38;;
53285;SDS011;39171;45.550;12.074;2023-09-30T09:29:02;1.83;;;1.35;;
53285;SDS011;39171;45.550;12.074;2023-09-30T09:35:11;2.28;;;1.70;;
53285;SDS011;39171;45.550;12.074;2023-09-30T09:41:12;2.95;;;2.03;;
53285;SDS011;39171;45.550;12.074;2023-09-30T09:47:14;2.40;;;1.80;;
53285;SDS011;39171;45.550;12.074;2023-09-30T09:53:17;3.45;;;2.58;;
53285;SDS011;39171;45.550;12.074;2023-09-30T09:59:21;3.42;;;2.75;;
53285;SDS011;39171;45.550;12.074;2023-09-30T10:05:24;3.60;;;2.67;;
53285;SDS011;39171;45.550;12.074;2023-09-30T10:11:28;3.35;;;2.90;;
53285;SDS011;39171;45.550;12.074;2023-09-30T10:17:55;4.10;;;2.80;;
53285;SDS011;39171;45.550;12.074;2023-09-30T10:30:24;4.78;;;3.83;;
53285;SDS011;39171;45.550;12.074;2023-09-30T10:36:29;5.07;;;4.20;;
53285;SDS011;39171;45.550;12.074;2023-09-30T10:42:48;4.72;;;3.63;;
53285;SDS011;39171;45.550;12.074;2023-09-30T10:49:10;5.30;;;3.50;;
53285;SDS011;39171;45.550;12.074;2023-09-30T10:55:18;4.70;;;3.58;;
53285;SDS011;39171;45.550;12.074;2023-09-30T11:01:21;4.40;;;3.53;;
53285;SDS011;39171;45.550;12.074;2023-09-30T11:07:23;4.30;;;3.63;;
53285;SDS011;39171;45.550;12.074;2023-09-30T11:13:33;4.40;;;3.67;;
53285;SDS011;39171;45.550;12.074;2023-09-30T11:19:46;4.25;;;3.53;;
53285;SDS011;39171;45.550;12.074;2023-09-30T11:25:49;5.60;;;4.43;;
53285;SDS011;39171;45.550;12.074;2023-09-30T11:31:51;7.07;;;4.90;;
53285;SDS011;39171;45.550;12.074;2023-09-30T11:37:52;5.50;;;3.60;;
53285;SDS011;39171;45.550;12.074;2023-09-30T11:43:58;4.32;;;3.60;;
53285;SDS011;39171;45.550;12.074;2023-09-30T11:50:01;7.25;;;4.22;;
53285;SDS011;39171;45.550;12.074;2023-09-30T11:56:05;5.45;;;4.28;;
53285;SDS011;39171;45.550;12.074;2023-09-30T12:02:10;5.70;;;4.28;;
53285;SDS011;39171;45.550;12.074;2023-09-30T12:08:18;5.53;;;4.03;;
53285;SDS011;39171;45.550;12.074;2023-09-30T12:14:20;6.03;;;4.10;;
53285;SDS011;39171;45.550;12.074;2023-09-30T12:20:22;5.07;;;4.35;;
53285;SDS011;39171;45.550;12.074;2023-09-30T12:26:23;6.88;;;4.15;;
53285;SDS011;39171;45.550;12.074;2023-09-30T12:32:25;6.72;;;4.25;;
53285;SDS011;39171;45.550;12.074;2023-09-30T12:38:27;5.90;;;4.03;;
53285;SDS011;39171;45.550;12.074;2023-09-30T12:44:29;5.22;;;3.80;;
53285;SDS011;39171;45.550;12.074;2023-09-30T12:50:30;7.28;;;4.82;;
53285;SDS011;39171;45.550;12.074;2023-09-30T12:56:32;6.65;;;4.88;;
53285;SDS011;39171;45.550;12.074;2023-09-30T13:02:34;6.43;;;4.60;;
53285;SDS011;39171;45.550;12.074;2023-09-30T13:08:35;8.65;;;5.13;;
53285;SDS011;39171;45.550;12.074;2023-09-30T13:14:37;5.85;;;4.60;;
53285;SDS011;39171;45.550;12.074;2023-09-30T13:20:39;5.70;;;4.65;;
53285;SDS011;39171;45.550;12.074;2023-09-30T13:26:41;6.75;;;4.45;;
53285;SDS011;39171;45.550;12.074;2023-09-30T13:32:42;6.57;;;4.78;;
53285;SDS011;39171;45.550;12.074;2023-09-30T13:38:45;4.70;;;4.10;;
53285;SDS011;39171;45.550;12.074;2023-09-30T13:44:47;6.57;;;4.32;;
53285;SDS011;39171;45.550;12.074;2023-09-30T13:50:49;6.30;;;4.53;;
53285;SDS011;39171;45.550;12.074;2023-09-30T13:56:51;6.72;;;4.57;;
53285;SDS011;39171;45.550;12.074;2023-09-30T14:02:52;7.00;;;4.40;;
53285;SDS011;39171;45.550;12.074;2023-09-30T14:08:54;8.20;;;5.07;;
53285;SDS011;39171;45.550;12.074;2023-09-30T14:14:56;5.88;;;4.63;;
53285;SDS011;39171;45.550;12.074;2023-09-30T14:20:58;7.38;;;6.22;;
53285;SDS011;39171;45.550;12.074;2023-09-30T14:27:00;7.07;;;5.80;;
53285;SDS011;39171;45.550;12.074;2023-09-30T14:33:02;7.95;;;5.20;;
53285;SDS011;39171;45.550;12.074;2023-09-30T14:39:04;6.38;;;4.95;;
53285;SDS011;39171;45.550;12.074;2023-09-30T14:45:06;6.65;;;4.80;;
53285;SDS011;39171;45.550;12.074;2023-09-30T14:51:09;6.93;;;4.35;;
53285;SDS011;39171;45.550;12.074;2023-09-30T14:57:10;6.70;;;4.80;;
53285;SDS011;39171;45.550;12.074;2023-09-30T15:03:14;9.70;;;4.72;;
53285;SDS011;39171;45.550;12.074;2023-09-30T15:09:16;7.45;;;5.03;;
53285;SDS011;39171;45.550;12.074;2023-09-30T15:15:18;8.50;;;4.47;;
53285;SDS011;39171;45.550;12.074;2023-09-30T15:21:20;6.80;;;4.93;;
53285;SDS011;39171;45.550;12.074;2023-09-30T15:27:22;7.53;;;5.57;;
53285;SDS011;39171;45.550;12.074;2023-09-30T15:33:23;5.60;;;4.50;;
53285;SDS011;39171;45.550;12.074;2023-09-30T15:39:25;6.93;;;4.95;;
53285;SDS011;39171;45.550;12.074;2023-09-30T15:45:26;6.88;;;5.55;;
53285;SDS011;39171;45.550;12.074;2023-09-30T15:51:28;6.70;;;5.18;;
53285;SDS011;39171;45.550;12.074;2023-09-30T15:57:29;6.55;;;4.53;;
53285;SDS011;39171;45.550;12.074;2023-09-30T16:03:31;5.45;;;4.65;;
53285;SDS011;39171;45.550;12.074;2023-09-30T16:09:34;7.43;;;4.95;;
53285;SDS011;39171;45.550;12.074;2023-09-30T16:15:39;6.22;;;4.60;;
53285;SDS011;39171;45.550;12.074;2023-09-30T16:21:41;5.60;;;4.30;;
53285;SDS011;39171;45.550;12.074;2023-09-30T16:27:43;5.28;;;4.20;;
53285;SDS011;39171;45.550;12.074;2023-09-30T16:33:45;4.90;;;3.85;;
53285;SDS011;39171;45.550;12.074;2023-09-30T16:39:47;4.75;;;3.90;;
53285;SDS011;39171;45.550;12.074;2023-09-30T16:45:48;5.03;;;3.95;;
53285;SDS011;39171;45.550;12.074;2023-09-30T16:51:56;7.70;;;5.55;;
53285;SDS011;39171;45.550;12.074;2023-09-30T16:57:58;6.97;;;4.38;;
53285;SDS011;39171;45.550;12.074;2023-09-30T17:03:59;4.90;;;4.10;;
53285;SDS011;39171;45.550;12.074;2023-09-30T17:10:01;4.72;;;3.78;;
53285;SDS011;39171;45.550;12.074;2023-09-30T17:16:32;4.20;;;3.33;;
53285;SDS011;39171;45.550;12.074;2023-09-30T17:22:50;4.18;;;3.72;;
53285;SDS011;39171;45.550;12.074;2023-09-30T17:28:56;5.43;;;4.05;;
53285;SDS011;39171;45.550;12.074;2023-09-30T17:35:03;4.28;;;3.58;;
53285;SDS011;39171;45.550;12.074;2023-09-30T17:41:05;4.50;;;3.67;;
53285;SDS011;39171;45.550;12.074;2023-09-30T17:47:10;5.00;;;3.85;;
53285;SDS011;39171;45.550;12.074;2023-09-30T17:53:12;4.68;;;3.70;;
53285;SDS011;39171;45.550;12.074;2023-09-30T17:59:22;4.53;;;3.47;;
53285;SDS011;39171;45.550;12.074;2023-09-30T18:06:05;4.35;;;3.25;;
53285;SDS011;39171;45.550;12.074;2023-09-30T18:12:14;2.90;;;2.50;;
53285;SDS011;39171;45.550;12.074;2023-09-30T18:18:15;3.10;;;2.80;;
53285;SDS011;39171;45.550;12.074;2023-09-30T18:24:17;3.55;;;2.85;;
53285;SDS011;39171;45.550;12.074;2023-09-30T18:30:19;4.45;;;2.65;;
53285;SDS011;39171;45.550;12.074;2023-09-30T18:36:31;3.00;;;2.50;;
53285;SDS011;39171;45.550;12.074;2023-09-30T18:42:42;3.28;;;2.50;;
53285;SDS011;39171;45.550;12.074;2023-09-30T18:49:06;2.47;;;1.80;;
53285;SDS011;39171;45.550;12.074;2023-09-30T18:55:23;2.33;;;1.77;;
53285;SDS011;39171;45.550;12.074;2023-09-30T19:01:25;2.58;;;1.90;;
53285;SDS011;39171;45.550;12.074;2023-09-30T19:07:31;2.83;;;1.85;;
53285;SDS011;39171;45.550;12.074;2023-09-30T19:13:35;2.55;;;1.70;;
53285;SDS011;39171;45.550;12.074;2023-09-30T19:19:45;2.90;;;1.48;;
53285;SDS011;39171;45.550;12.074;2023-09-30T19:26:13;5.22;;;1.85;;
53285;SDS011;39171;45.550;12.074;2023-09-30T19:32:36;2.28;;;1.75;;
53285;SDS011;39171;45.550;12.074;2023-09-30T19:40:48;3.72;;;2.40;;
53285;SDS011;39171;45.550;12.074;2023-09-30T19:46:52;3.45;;;2.72;;
53285;SDS011;39171;45.550;12.074;2023-09-30T19:52:59;2.92;;;2.33;;
53285;SDS011;39171;45.550;12.074;2023-09-30T19:59:29;3.50;;;2.88;;
53285;SDS011;39171;45.550;12.074;2023-09-30T20:05:45;3.22;;;2.60;;
53285;SDS011;39171;45.550;12.074;2023-09-30T20:12:27;4.63;;;3.17;;
53285;SDS011;39171;45.550;12.074;2023-09-30T20:18:30;3.92;;;3.17;;
53285;SDS011;39171;45.550;12.074;2023-09-30T20:24:42;4.65;;;3.63;;
53285;SDS011;39171;45.550;12.074;2023-09-30T20:30:56;6.30;;;4.05;;
53285;SDS011;39171;45.550;12.074;2023-09-30T20:37:04;5.95;;;4.40;;
53285;SDS011;39171;45.550;12.074;2023-09-30T20:43:09;5.28;;;4.20;;
53285;SDS011;39171;45.550;12.074;2023-09-30T20:49:32;6.47;;;4.82;;
53285;SDS011;39171;45.550;12.074;2023-09-30T20:55:37;5.80;;;4.38;;
53285;SDS011;39171;45.550;12.074;2023-09-30T21:01:42;6.30;;;5.13;;
53285;SDS011;39171;45.550;12.074;2023-09-30T21:07:54;6.97;;;5.70;;
53285;SDS011;39171;45.550;12.074;2023-09-30T21:13:56;6.60;;;5.78;;
53285;SDS011;39171;45.550;12.074;2023-09-30T21:19:59;7.15;;;6.13;;
53285;SDS011;39171;45.550;12.074;2023-09-30T21:26:00;7.30;;;6.20;;
53285;SDS011;39171;45.550;12.074;2023-09-30T21:32:02;7.07;;;6.28;;
53285;SDS011;39171;45.550;12.074;2023-09-30T21:38:04;6.80;;;6.07;;
53285;SDS011;39171;45.550;12.074;2023-09-30T21:44:12;6.88;;;5.68;;
53285;SDS011;39171;45.550;12.074;2023-09-30T21:50:13;7.45;;;6.57;;
53285;SDS011;39171;45.550;12.074;2023-09-30T21:56:15;8.05;;;6.85;;
53285;SDS011;39171;45.550;12.074;2023-09-30T22:02:19;9.32;;;7.05;;
53285;SDS011;39171;45.550;12.074;2023-09-30T22:08:24;7.82;;;6.57;;
53285;SDS011;39171;45.550;12.074;2023-09-30T22:14:27;7.95;;;7.15;;
53285;SDS011;39171;45.550;12.074;2023-09-30T22:20:28;9.68;;;7.43;;
53285;SDS011;39171;45.550;12.074;2023-09-30T22:26:30;9.25;;;8.23;;
53285;SDS011;39171;45.550;12.074;2023-09-30T22:32:32;8.68;;;7.78;;
53285;SDS011;39171;45.550;12.074;2023-09-30T22:38:33;9.13;;;7.68;;
53285;SDS011;39171;45.550;12.074;2023-09-30T22:44:35;9.65;;;7.55;;
53285;SDS011;39171;45.550;12.074;2023-09-30T22:50:39;10.00;;;7.60;;
53285;SDS011;39171;45.550;12.074;2023-09-30T22:56:41;8.32;;;7.35;;
53285;SDS011;39171;45.550;12.074;2023-09-30T23:02:42;8.32;;;7.03;;
53285;SDS011;39171;45.550;12.074;2023-09-30T23:08:44;9.27;;;6.85;;
53285;SDS011;39171;45.550;12.074;2023-09-30T23:14:49;8.77;;;6.93;;
53285;SDS011;39171;45.550;12.074;2023-09-30T23:20:52;6.88;;;6.10;;
53285;SDS011;39171;45.550;12.074;2023-09-30T23:26:54;8.02;;;6.88;;
53285;SDS011;39171;45.550;12.074;2023-09-30T23:32:59;7.57;;;6.72;;
53285;SDS011;39171;45.550;12.074;2023-09-30T23:39:04;6.95;;;6.25;;
53285;SDS011;39171;45.550;12.074;2023-09-30T23:45:15;7.18;;;6.47;;
53285;SDS011;39171;45.550;12.074;2023-09-30T23:51:19;7.60;;;6.40;;
53285;SDS011;39171;45.550;12.074;2023-09-30T23:57:21;7.18;;;5.93;;
